sensor_id;sensor_type;location;lat;lon;timestamp;P1;durP1;ratioP1;P2;durP2;ratioP2
51981;SDS011;37998;53.416;6.730;2023-04-24T00:00:14;8.38;;;5.40;;
51981;SDS011;37998;53.416;6.730;2023-04-24T00:02:44;8.43;;;5.47;;
51981;SDS011;37998;53.416;6.730;2023-04-24T00:05:13;8.05;;;5.10;;
51981;SDS011;37998;53.416;6.730;2023-04-24T00:07:40;7.07;;;5.00;;
51981;SDS011;37998;53.416;6.730;2023-04-24T00:10:07;9.45;;;6.03;;
51981;SDS011;37998;53.416;6.730;2023-04-24T00:12:33;7.88;;;5.90;;
51981;SDS011;37998;53.416;6.730;2023-04-24T00:14:59;9.45;;;5.82;;
51981;SDS011;37998;53.416;6.730;2023-04-24T00:17:25;6.75;;;5.95;;
51981;SDS011;37998;53.416;6.730;2023-04-24T00:19:51;6.85;;;5.47;;
51981;SDS011;37998;53.416;6.730;2023-04-24T00:22:27;6.63;;;5.93;;
51981;SDS011;37998;53.416;6.730;2023-04-24T00:24:54;7.13;;;5.63;;
51981;SDS011;37998;53.416;6.730;2023-04-24T00:27:20;6.53;;;5.40;;
51981;SDS011;37998;53.416;6.730;2023-04-24T00:29:46;6.07;;;5.43;;
51981;SDS011;37998;53.416;6.730;2023-04-24T00:32:13;6.55;;;5.20;;
51981;SDS011;37998;53.416;6.730;2023-04-24T00:34:39;7.10;;;5.60;;
51981;SDS011;37998;53.416;6.730;2023-04-24T00:37:05;7.10;;;6.40;;
51981;SDS011;37998;53.416;6.730;2023-04-24T00:39:31;6.72;;;5.95;;
51981;SDS011;37998;53.416;6.730;2023-04-24T00:41:57;6.60;;;5.90;;
51981;SDS011;37998;53.416;6.730;2023-04-24T00:44:24;7.43;;;6.65;;
51981;SDS011;37998;53.416;6.730;2023-04-24T00:46:50;6.85;;;6.15;;
51981;SDS011;37998;53.416;6.730;2023-04-24T00:49:22;7.25;;;6.15;;
51981;SDS011;37998;53.416;6.730;2023-04-24T00:51:49;7.55;;;6.25;;
51981;SDS011;37998;53.416;6.730;2023-04-24T00:54:16;8.18;;;6.90;;
51981;SDS011;37998;53.416;6.730;2023-04-24T00:56:44;6.75;;;6.05;;
51981;SDS011;37998;53.416;6.730;2023-04-24T00:59:11;6.88;;;6.28;;
51981;SDS011;37998;53.416;6.730;2023-04-24T01:01:38;6.43;;;5.82;;
51981;SDS011;37998;53.416;6.730;2023-04-24T01:04:07;5.80;;;5.05;;
51981;SDS011;37998;53.416;6.730;2023-04-24T01:06:35;4.95;;;4.47;;
51981;SDS011;37998;53.416;6.730;2023-04-24T01:09:08;4.90;;;4.40;;
51981;SDS011;37998;53.416;6.730;2023-04-24T01:11:36;5.60;;;4.03;;
51981;SDS011;37998;53.416;6.730;2023-04-24T01:14:04;4.05;;;3.63;;
51981;SDS011;37998;53.416;6.730;2023-04-24T01:16:30;3.70;;;3.40;;
51981;SDS011;37998;53.416;6.730;2023-04-24T01:18:55;4.10;;;3.22;;
51981;SDS011;37998;53.416;6.730;2023-04-24T01:21:21;3.13;;;2.85;;
51981;SDS011;37998;53.416;6.730;2023-04-24T01:23:50;2.80;;;2.60;;
51981;SDS011;37998;53.416;6.730;2023-04-24T01:26:17;2.83;;;2.50;;
51981;SDS011;37998;53.416;6.730;2023-04-24T01:28:45;2.13;;;1.95;;
51981;SDS011;37998;53.416;6.730;2023-04-24T01:31:12;1.88;;;1.77;;
51981;SDS011;37998;53.416;6.730;2023-04-24T01:33:41;1.83;;;1.73;;
51981;SDS011;37998;53.416;6.730;2023-04-24T01:36:08;2.30;;;1.63;;
51981;SDS011;37998;53.416;6.730;2023-04-24T01:38:36;1.52;;;1.33;;
51981;SDS011;37998;53.416;6.730;2023-04-24T01:41:03;1.58;;;1.40;;
51981;SDS011;37998;53.416;6.730;2023-04-24T01:43:29;1.83;;;1.58;;
51981;SDS011;37998;53.416;6.730;2023-04-24T01:45:57;1.90;;;1.80;;
51981;SDS011;37998;53.416;6.730;2023-04-24T01:48:22;1.83;;;1.73;;
51981;SDS011;37998;53.416;6.730;2023-04-24T01:50:48;2.38;;;1.60;;
51981;SDS011;37998;53.416;6.730;2023-04-24T01:53:14;1.58;;;1.48;;
51981;SDS011;37998;53.416;6.730;2023-04-24T01:55:41;1.92;;;1.60;;
51981;SDS011;37998;53.416;6.730;2023-04-24T01:58:07;1.60;;;1.50;;
51981;SDS011;37998;53.416;6.730;2023-04-24T02:00:33;3.88;;;1.60;;
51981;SDS011;37998;53.416;6.730;2023-04-24T02:02:59;1.70;;;1.60;;
51981;SDS011;37998;53.416;6.730;2023-04-24T02:05:27;1.35;;;1.30;;
51981;SDS011;37998;53.416;6.730;2023-04-24T02:07:54;2.70;;;1.50;;
51981;SDS011;37998;53.416;6.730;2023-04-24T02:10:20;2.88;;;1.70;;
51981;SDS011;37998;53.416;6.730;2023-04-24T02:12:46;1.50;;;1.40;;
51981;SDS011;37998;53.416;6.730;2023-04-24T02:15:12;1.80;;;1.70;;
51981;SDS011;37998;53.416;6.730;2023-04-24T02:17:38;1.73;;;1.63;;
51981;SDS011;37998;53.416;6.730;2023-04-24T02:20:04;1.77;;;1.67;;
51981;SDS011;37998;53.416;6.730;2023-04-24T02:22:31;1.67;;;1.58;;
51981;SDS011;37998;53.416;6.730;2023-04-24T02:25:00;1.77;;;1.67;;
51981;SDS011;37998;53.416;6.730;2023-04-24T02:27:26;1.70;;;1.60;;
51981;SDS011;37998;53.416;6.730;2023-04-24T02:29:52;1.90;;;1.80;;
51981;SDS011;37998;53.416;6.730;2023-04-24T02:32:18;1.70;;;1.60;;
51981;SDS011;37998;53.416;6.730;2023-04-24T02:34:44;3.28;;;1.90;;
51981;SDS011;37998;53.416;6.730;2023-04-24T02:37:11;2.58;;;1.98;;
51981;SDS011;37998;53.416;6.730;2023-04-24T02:39:37;3.00;;;2.03;;
51981;SDS011;37998;53.416;6.730;2023-04-24T02:42:03;2.22;;;2.03;;
51981;SDS011;37998;53.416;6.730;2023-04-24T02:44:29;1.90;;;1.80;;
51981;SDS011;37998;53.416;6.730;2023-04-24T02:46:55;2.15;;;2.05;;
51981;SDS011;37998;53.416;6.730;2023-04-24T02:49:22;2.13;;;2.03;;
51981;SDS011;37998;53.416;6.730;2023-04-24T02:51:48;3.08;;;2.20;;
51981;SDS011;37998;53.416;6.730;2023-04-24T02:54:13;5.43;;;2.72;;
51981;SDS011;37998;53.416;6.730;2023-04-24T02:56:39;2.63;;;2.42;;
51981;SDS011;37998;53.416;6.730;2023-04-24T02:59:07;2.67;;;2.47;;
51981;SDS011;37998;53.416;6.730;2023-04-24T03:01:33;2.72;;;2.53;;
51981;SDS011;37998;53.416;6.730;2023-04-24T03:03:59;3.10;;;2.80;;
51981;SDS011;37998;53.416;6.730;2023-04-24T03:06:25;3.17;;;2.97;;
51981;SDS011;37998;53.416;6.730;2023-04-24T03:08:52;3.13;;;2.92;;
51981;SDS011;37998;53.416;6.730;2023-04-24T03:11:18;3.20;;;3.00;;
51981;SDS011;37998;53.416;6.730;2023-04-24T03:13:44;3.30;;;2.78;;
51981;SDS011;37998;53.416;6.730;2023-04-24T03:16:10;3.40;;;3.20;;
51981;SDS011;37998;53.416;6.730;2023-04-24T03:18:36;6.03;;;3.78;;
51981;SDS011;37998;53.416;6.730;2023-04-24T03:21:04;4.15;;;3.85;;
51981;SDS011;37998;53.416;6.730;2023-04-24T03:23:30;4.35;;;4.05;;
51981;SDS011;37998;53.416;6.730;2023-04-24T03:25:56;4.63;;;4.18;;
51981;SDS011;37998;53.416;6.730;2023-04-24T03:28:22;12.77;;;5.18;;
51981;SDS011;37998;53.416;6.730;2023-04-24T03:30:54;6.20;;;5.57;;
51981;SDS011;37998;53.416;6.730;2023-04-24T03:33:22;7.07;;;5.75;;
51981;SDS011;37998;53.416;6.730;2023-04-24T03:36:14;5.97;;;5.47;;
51981;SDS011;37998;53.416;6.730;2023-04-24T03:38:40;6.50;;;5.90;;
51981;SDS011;37998;53.416;6.730;2023-04-24T03:41:41;6.68;;;6.03;;
51981;SDS011;37998;53.416;6.730;2023-04-24T03:44:16;6.57;;;5.97;;
51981;SDS011;37998;53.416;6.730;2023-04-24T03:46:42;7.18;;;6.50;;
51981;SDS011;37998;53.416;6.730;2023-04-24T03:49:08;6.82;;;6.20;;
51981;SDS011;37998;53.416;6.730;2023-04-24T03:51:38;7.03;;;6.43;;
51981;SDS011;37998;53.416;6.730;2023-04-24T03:54:16;7.40;;;6.70;;
51981;SDS011;37998;53.416;6.730;2023-04-24T03:56:44;8.82;;;7.07;;
51981;SDS011;37998;53.416;6.730;2023-04-24T03:59:10;7.80;;;7.00;;
51981;SDS011;37998;53.416;6.730;2023-04-24T04:01:38;7.97;;;7.28;;
51981;SDS011;37998;53.416;6.730;2023-04-24T04:04:10;8.37;;;7.67;;
51981;SDS011;37998;53.416;6.730;2023-04-24T04:06:37;8.02;;;7.32;;
51981;SDS011;37998;53.416;6.730;2023-04-24T04:09:04;8.48;;;7.57;;
51981;SDS011;37998;53.416;6.730;2023-04-24T04:11:30;9.80;;;8.32;;
51981;SDS011;37998;53.416;6.730;2023-04-24T04:13:57;10.65;;;8.57;;
51981;SDS011;37998;53.416;6.730;2023-04-24T04:16:24;8.73;;;7.93;;
51981;SDS011;37998;53.416;6.730;2023-04-24T04:18:54;8.88;;;8.07;;
51981;SDS011;37998;53.416;6.730;2023-04-24T04:21:21;9.82;;;8.55;;
51981;SDS011;37998;53.416;6.730;2023-04-24T04:23:49;8.98;;;8.07;;
51981;SDS011;37998;53.416;6.730;2023-04-24T04:26:24;10.57;;;9.57;;
51981;SDS011;37998;53.416;6.730;2023-04-24T04:29:00;10.13;;;9.05;;
51981;SDS011;37998;53.416;6.730;2023-04-24T04:31:26;10.60;;;9.60;;
51981;SDS011;37998;53.416;6.730;2023-04-24T04:33:53;10.70;;;9.75;;
51981;SDS011;37998;53.416;6.730;2023-04-24T04:36:20;10.43;;;9.43;;
51981;SDS011;37998;53.416;6.730;2023-04-24T04:38:51;12.60;;;9.80;;
51981;SDS011;37998;53.416;6.730;2023-04-24T04:41:38;12.40;;;10.48;;
51981;SDS011;37998;53.416;6.730;2023-04-24T04:44:06;11.32;;;10.15;;
51981;SDS011;37998;53.416;6.730;2023-04-24T04:46:34;13.43;;;12.05;;
51981;SDS011;37998;53.416;6.730;2023-04-24T04:49:19;13.23;;;11.93;;
51981;SDS011;37998;53.416;6.730;2023-04-24T04:51:47;12.50;;;11.30;;
51981;SDS011;37998;53.416;6.730;2023-04-24T04:54:14;14.23;;;11.82;;
51981;SDS011;37998;53.416;6.730;2023-04-24T04:56:41;16.30;;;13.20;;
51981;SDS011;37998;53.416;6.730;2023-04-24T04:59:07;13.43;;;12.07;;
51981;SDS011;37998;53.416;6.730;2023-04-24T05:01:34;14.05;;;12.65;;
51981;SDS011;37998;53.416;6.730;2023-04-24T05:04:01;12.98;;;11.68;;
51981;SDS011;37998;53.416;6.730;2023-04-24T05:06:27;12.63;;;11.32;;
51981;SDS011;37998;53.416;6.730;2023-04-24T05:08:53;12.25;;;11.05;;
51981;SDS011;37998;53.416;6.730;2023-04-24T05:11:33;10.07;;;9.13;;
51981;SDS011;37998;53.416;6.730;2023-04-24T05:14:00;11.07;;;9.98;;
51981;SDS011;37998;53.416;6.730;2023-04-24T05:16:36;10.80;;;9.45;;
51981;SDS011;37998;53.416;6.730;2023-04-24T05:19:03;10.55;;;9.18;;
51981;SDS011;37998;53.416;6.730;2023-04-24T05:21:34;10.23;;;8.95;;
51981;SDS011;37998;53.416;6.730;2023-04-24T05:24:00;8.65;;;7.25;;
51981;SDS011;37998;53.416;6.730;2023-04-24T05:26:58;9.73;;;8.32;;
51981;SDS011;37998;53.416;6.730;2023-04-24T05:29:30;6.85;;;6.10;;
51981;SDS011;37998;53.416;6.730;2023-04-24T05:31:57;7.07;;;5.45;;
51981;SDS011;37998;53.416;6.730;2023-04-24T05:34:24;7.57;;;5.03;;
51981;SDS011;37998;53.416;6.730;2023-04-24T05:36:53;5.72;;;4.63;;
51981;SDS011;37998;53.416;6.730;2023-04-24T05:39:19;6.68;;;5.60;;
51981;SDS011;37998;53.416;6.730;2023-04-24T05:41:45;6.20;;;5.10;;
51981;SDS011;37998;53.416;6.730;2023-04-24T05:44:11;7.07;;;5.22;;
51981;SDS011;37998;53.416;6.730;2023-04-24T05:46:37;5.95;;;5.28;;
51981;SDS011;37998;53.416;6.730;2023-04-24T05:49:03;6.82;;;5.68;;
51981;SDS011;37998;53.416;6.730;2023-04-24T05:51:31;8.15;;;4.88;;
51981;SDS011;37998;53.416;6.730;2023-04-24T05:53:57;5.75;;;4.45;;
51981;SDS011;37998;53.416;6.730;2023-04-24T05:56:24;6.40;;;5.00;;
51981;SDS011;37998;53.416;6.730;2023-04-24T05:58:50;5.95;;;3.97;;
51981;SDS011;37998;53.416;6.730;2023-04-24T06:01:16;3.90;;;3.45;;
51981;SDS011;37998;53.416;6.730;2023-04-24T06:03:47;4.10;;;3.28;;
51981;SDS011;37998;53.416;6.730;2023-04-24T06:06:13;5.45;;;4.22;;
51981;SDS011;37998;53.416;6.730;2023-04-24T06:08:39;3.92;;;3.50;;
51981;SDS011;37998;53.416;6.730;2023-04-24T06:11:05;4.75;;;4.25;;
51981;SDS011;37998;53.416;6.730;2023-04-24T06:13:31;4.88;;;4.45;;
51981;SDS011;37998;53.416;6.730;2023-04-24T06:16:23;5.40;;;4.90;;
51981;SDS011;37998;53.416;6.730;2023-04-24T06:18:55;6.45;;;4.47;;
51981;SDS011;37998;53.416;6.730;2023-04-24T06:21:21;5.10;;;4.13;;
51981;SDS011;37998;53.416;6.730;2023-04-24T06:23:47;5.63;;;4.00;;
51981;SDS011;37998;53.416;6.730;2023-04-24T06:26:14;5.25;;;3.80;;
51981;SDS011;37998;53.416;6.730;2023-04-24T06:28:39;4.45;;;4.05;;
51981;SDS011;37998;53.416;6.730;2023-04-24T06:31:05;4.60;;;4.20;;
51981;SDS011;37998;53.416;6.730;2023-04-24T06:33:31;4.78;;;4.25;;
51981;SDS011;37998;53.416;6.730;2023-04-24T06:35:57;5.15;;;3.78;;
51981;SDS011;37998;53.416;6.730;2023-04-24T06:38:23;5.97;;;3.85;;
51981;SDS011;37998;53.416;6.730;2023-04-24T06:40:49;7.07;;;5.22;;
51981;SDS011;37998;53.416;6.730;2023-04-24T06:43:15;9.75;;;6.35;;
51981;SDS011;37998;53.416;6.730;2023-04-24T06:45:41;7.63;;;6.25;;
51981;SDS011;37998;53.416;6.730;2023-04-24T06:48:09;6.30;;;5.18;;
51981;SDS011;37998;53.416;6.730;2023-04-24T06:50:35;4.95;;;4.22;;
51981;SDS011;37998;53.416;6.730;2023-04-24T06:53:01;4.10;;;3.70;;
51981;SDS011;37998;53.416;6.730;2023-04-24T06:55:27;6.57;;;4.10;;
51981;SDS011;37998;53.416;6.730;2023-04-24T06:57:53;5.22;;;4.38;;
51981;SDS011;37998;53.416;6.730;2023-04-24T07:00:19;3.97;;;3.20;;
51981;SDS011;37998;53.416;6.730;2023-04-24T07:02:45;8.95;;;3.40;;
51981;SDS011;37998;53.416;6.730;2023-04-24T07:05:11;3.47;;;2.55;;
51981;SDS011;37998;53.416;6.730;2023-04-24T07:07:37;3.95;;;2.50;;
51981;SDS011;37998;53.416;6.730;2023-04-24T07:10:05;4.45;;;2.67;;
51981;SDS011;37998;53.416;6.730;2023-04-24T07:12:31;4.97;;;2.97;;
51981;SDS011;37998;53.416;6.730;2023-04-24T07:14:58;7.95;;;3.67;;
51981;SDS011;37998;53.416;6.730;2023-04-24T07:17:24;9.95;;;3.80;;
51981;SDS011;37998;53.416;6.730;2023-04-24T07:19:49;5.97;;;2.65;;
51981;SDS011;37998;53.416;6.730;2023-04-24T07:22:15;8.93;;;3.00;;
51981;SDS011;37998;53.416;6.730;2023-04-24T07:24:44;4.90;;;2.90;;
51981;SDS011;37998;53.416;6.730;2023-04-24T07:27:10;6.88;;;3.60;;
51981;SDS011;37998;53.416;6.730;2023-04-24T07:29:37;6.65;;;2.47;;
51981;SDS011;37998;53.416;6.730;2023-04-24T07:32:03;5.90;;;2.38;;
51981;SDS011;37998;53.416;6.730;2023-04-24T07:34:29;4.40;;;2.40;;
51981;SDS011;37998;53.416;6.730;2023-04-24T07:36:55;4.20;;;2.10;;
51981;SDS011;37998;53.416;6.730;2023-04-24T07:39:21;9.43;;;2.25;;
51981;SDS011;37998;53.416;6.730;2023-04-24T07:41:47;7.60;;;2.10;;
51981;SDS011;37998;53.416;6.730;2023-04-24T07:44:13;4.82;;;2.20;;
51981;SDS011;37998;53.416;6.730;2023-04-24T07:46:38;4.82;;;2.58;;
51981;SDS011;37998;53.416;6.730;2023-04-24T07:49:05;4.07;;;3.03;;
51981;SDS011;37998;53.416;6.730;2023-04-24T07:51:32;13.98;;;3.30;;
51981;SDS011;37998;53.416;6.730;2023-04-24T07:54:03;4.85;;;3.78;;
51981;SDS011;37998;53.416;6.730;2023-04-24T07:56:31;4.97;;;3.45;;
51981;SDS011;37998;53.416;6.730;2023-04-24T07:58:58;5.63;;;3.80;;
51981;SDS011;37998;53.416;6.730;2023-04-24T08:01:24;6.38;;;4.07;;
51981;SDS011;37998;53.416;6.730;2023-04-24T08:03:50;6.65;;;3.70;;
51981;SDS011;37998;53.416;6.730;2023-04-24T08:06:16;5.90;;;4.10;;
51981;SDS011;37998;53.416;6.730;2023-04-24T08:08:42;10.27;;;4.70;;
51981;SDS011;37998;53.416;6.730;2023-04-24T08:11:08;7.53;;;5.20;;
51981;SDS011;37998;53.416;6.730;2023-04-24T08:13:34;8.57;;;5.00;;
51981;SDS011;37998;53.416;6.730;2023-04-24T08:16:00;8.60;;;5.00;;
51981;SDS011;37998;53.416;6.730;2023-04-24T08:18:27;13.15;;;6.07;;
51981;SDS011;37998;53.416;6.730;2023-04-24T08:20:53;11.30;;;6.75;;
51981;SDS011;37998;53.416;6.730;2023-04-24T08:23:19;16.42;;;9.00;;
51981;SDS011;37998;53.416;6.730;2023-04-24T08:25:45;11.50;;;6.75;;
51981;SDS011;37998;53.416;6.730;2023-04-24T08:28:11;12.05;;;7.20;;
51981;SDS011;37998;53.416;6.730;2023-04-24T08:30:37;13.77;;;9.30;;
51981;SDS011;37998;53.416;6.730;2023-04-24T08:33:03;16.35;;;10.43;;
51981;SDS011;37998;53.416;6.730;2023-04-24T08:35:29;19.38;;;12.80;;
51981;SDS011;37998;53.416;6.730;2023-04-24T08:37:55;19.17;;;13.25;;
51981;SDS011;37998;53.416;6.730;2023-04-24T08:40:22;27.15;;;16.23;;
51981;SDS011;37998;53.416;6.730;2023-04-24T08:42:54;32.28;;;17.83;;
51981;SDS011;37998;53.416;6.730;2023-04-24T08:45:24;29.55;;;17.35;;
51981;SDS011;37998;53.416;6.730;2023-04-24T08:47:51;25.80;;;18.30;;
51981;SDS011;37998;53.416;6.730;2023-04-24T08:50:20;24.15;;;15.23;;
51981;SDS011;37998;53.416;6.730;2023-04-24T08:52:48;20.70;;;13.65;;
51981;SDS011;37998;53.416;6.730;2023-04-24T08:55:16;25.73;;;14.00;;
51981;SDS011;37998;53.416;6.730;2023-04-24T08:57:44;26.13;;;13.55;;
51981;SDS011;37998;53.416;6.730;2023-04-24T09:00:11;23.50;;;14.70;;
51981;SDS011;37998;53.416;6.730;2023-04-24T09:02:39;24.13;;;14.07;;
51981;SDS011;37998;53.416;6.730;2023-04-24T09:05:10;25.90;;;13.23;;
51981;SDS011;37998;53.416;6.730;2023-04-24T09:07:37;27.38;;;13.15;;
51981;SDS011;37998;53.416;6.730;2023-04-24T09:10:07;28.92;;;13.68;;
51981;SDS011;37998;53.416;6.730;2023-04-24T09:12:34;22.38;;;13.52;;
51981;SDS011;37998;53.416;6.730;2023-04-24T09:15:00;21.80;;;12.90;;
51981;SDS011;37998;53.416;6.730;2023-04-24T09:17:30;25.02;;;14.40;;
51981;SDS011;37998;53.416;6.730;2023-04-24T09:19:56;20.00;;;12.50;;
51981;SDS011;37998;53.416;6.730;2023-04-24T09:22:22;20.55;;;11.88;;
51981;SDS011;37998;53.416;6.730;2023-04-24T09:24:48;17.83;;;11.32;;
51981;SDS011;37998;53.416;6.730;2023-04-24T09:27:34;14.25;;;9.20;;
51981;SDS011;37998;53.416;6.730;2023-04-24T09:30:01;13.50;;;8.98;;
51981;SDS011;37998;53.416;6.730;2023-04-24T09:32:28;13.55;;;8.55;;
51981;SDS011;37998;53.416;6.730;2023-04-24T09:35:04;13.27;;;8.88;;
51981;SDS011;37998;53.416;6.730;2023-04-24T09:37:39;14.77;;;8.35;;
51981;SDS011;37998;53.416;6.730;2023-04-24T09:40:07;14.65;;;8.65;;
51981;SDS011;37998;53.416;6.730;2023-04-24T09:42:36;12.13;;;8.05;;
51981;SDS011;37998;53.416;6.730;2023-04-24T09:45:02;13.13;;;7.57;;
51981;SDS011;37998;53.416;6.730;2023-04-24T09:47:35;10.88;;;7.65;;
51981;SDS011;37998;53.416;6.730;2023-04-24T09:50:08;15.55;;;7.03;;
51981;SDS011;37998;53.416;6.730;2023-04-24T09:52:35;13.75;;;7.45;;
51981;SDS011;37998;53.416;6.730;2023-04-24T09:55:27;14.52;;;8.13;;
51981;SDS011;37998;53.416;6.730;2023-04-24T09:57:54;9.05;;;6.93;;
51981;SDS011;37998;53.416;6.730;2023-04-24T10:00:23;13.35;;;7.47;;
51981;SDS011;37998;53.416;6.730;2023-04-24T10:03:01;13.75;;;7.30;;
51981;SDS011;37998;53.416;6.730;2023-04-24T10:05:35;15.38;;;7.68;;
51981;SDS011;37998;53.416;6.730;2023-04-24T10:08:03;16.88;;;7.35;;
51981;SDS011;37998;53.416;6.730;2023-04-24T10:10:31;18.50;;;7.35;;
51981;SDS011;37998;53.416;6.730;2023-04-24T10:12:59;10.82;;;6.18;;
51981;SDS011;37998;53.416;6.730;2023-04-24T10:15:26;15.90;;;6.68;;
51981;SDS011;37998;53.416;6.730;2023-04-24T10:17:53;11.20;;;5.68;;
51981;SDS011;37998;53.416;6.730;2023-04-24T10:20:20;12.45;;;6.00;;
51981;SDS011;37998;53.416;6.730;2023-04-24T10:22:48;13.05;;;5.88;;
51981;SDS011;37998;53.416;6.730;2023-04-24T10:25:16;12.75;;;5.93;;
51981;SDS011;37998;53.416;6.730;2023-04-24T10:27:44;15.50;;;6.15;;
51981;SDS011;37998;53.416;6.730;2023-04-24T10:30:12;13.63;;;5.03;;
51981;SDS011;37998;53.416;6.730;2023-04-24T10:32:38;13.32;;;4.90;;
51981;SDS011;37998;53.416;6.730;2023-04-24T10:35:06;16.02;;;5.28;;
51981;SDS011;37998;53.416;6.730;2023-04-24T10:37:39;12.45;;;4.78;;
51981;SDS011;37998;53.416;6.730;2023-04-24T10:40:27;11.93;;;4.78;;
51981;SDS011;37998;53.416;6.730;2023-04-24T10:42:57;10.45;;;4.88;;
51981;SDS011;37998;53.416;6.730;2023-04-24T10:45:24;10.48;;;4.47;;
51981;SDS011;37998;53.416;6.730;2023-04-24T10:48:08;9.65;;;4.70;;
51981;SDS011;37998;53.416;6.730;2023-04-24T10:50:45;10.93;;;4.22;;
51981;SDS011;37998;53.416;6.730;2023-04-24T10:53:13;9.55;;;4.25;;
51981;SDS011;37998;53.416;6.730;2023-04-24T10:55:47;10.57;;;4.63;;
51981;SDS011;37998;53.416;6.730;2023-04-24T10:58:14;12.38;;;4.38;;
51981;SDS011;37998;53.416;6.730;2023-04-24T11:00:42;12.43;;;4.45;;
51981;SDS011;37998;53.416;6.730;2023-04-24T11:05:58;11.55;;;3.92;;
51981;SDS011;37998;53.416;6.730;2023-04-24T11:08:25;16.23;;;4.78;;
51981;SDS011;37998;53.416;6.730;2023-04-24T11:10:58;10.68;;;3.78;;
51981;SDS011;37998;53.416;6.730;2023-04-24T11:13:26;9.45;;;3.67;;
51981;SDS011;37998;53.416;6.730;2023-04-24T11:16:20;10.52;;;4.22;;
51981;SDS011;37998;53.416;6.730;2023-04-24T11:21:42;8.05;;;4.13;;
51981;SDS011;37998;53.416;6.730;2023-04-24T11:24:23;11.48;;;3.85;;
51981;SDS011;37998;53.416;6.730;2023-04-24T11:26:50;14.13;;;3.30;;
51981;SDS011;37998;53.416;6.730;2023-04-24T11:29:19;11.73;;;3.40;;
51981;SDS011;37998;53.416;6.730;2023-04-24T11:31:46;11.35;;;3.42;;
51981;SDS011;37998;53.416;6.730;2023-04-24T11:34:15;10.85;;;3.17;;
51981;SDS011;37998;53.416;6.730;2023-04-24T11:36:43;11.80;;;3.40;;
51981;SDS011;37998;53.416;6.730;2023-04-24T11:39:11;10.48;;;2.75;;
51981;SDS011;37998;53.416;6.730;2023-04-24T11:41:38;8.30;;;2.78;;
51981;SDS011;37998;53.416;6.730;2023-04-24T11:44:08;15.82;;;3.60;;
51981;SDS011;37998;53.416;6.730;2023-04-24T11:46:34;12.57;;;4.22;;
51981;SDS011;37998;53.416;6.730;2023-04-24T11:49:03;12.57;;;2.80;;
51981;SDS011;37998;53.416;6.730;2023-04-24T11:51:28;10.98;;;2.78;;
51981;SDS011;37998;53.416;6.730;2023-04-24T11:53:55;11.57;;;2.95;;
51981;SDS011;37998;53.416;6.730;2023-04-24T11:56:22;6.25;;;2.78;;
51981;SDS011;37998;53.416;6.730;2023-04-24T11:58:51;12.52;;;2.97;;
51981;SDS011;37998;53.416;6.730;2023-04-24T12:01:19;10.85;;;2.63;;
51981;SDS011;37998;53.416;6.730;2023-04-24T12:03:49;11.95;;;2.80;;
51981;SDS011;37998;53.416;6.730;2023-04-24T12:06:16;8.38;;;2.30;;
51981;SDS011;37998;53.416;6.730;2023-04-24T12:08:45;8.55;;;2.33;;
51981;SDS011;37998;53.416;6.730;2023-04-24T12:11:14;9.27;;;2.22;;
51981;SDS011;37998;53.416;6.730;2023-04-24T12:13:41;7.15;;;1.98;;
51981;SDS011;37998;53.416;6.730;2023-04-24T12:16:07;5.40;;;2.15;;
51981;SDS011;37998;53.416;6.730;2023-04-24T12:18:33;7.82;;;2.42;;
51981;SDS011;37998;53.416;6.730;2023-04-24T12:21:14;9.07;;;2.50;;
51981;SDS011;37998;53.416;6.730;2023-04-24T12:23:44;8.85;;;2.38;;
51981;SDS011;37998;53.416;6.730;2023-04-24T12:26:11;10.27;;;2.30;;
51981;SDS011;37998;53.416;6.730;2023-04-24T12:28:40;6.57;;;2.08;;
51981;SDS011;37998;53.416;6.730;2023-04-24T12:31:06;6.53;;;2.45;;
51981;SDS011;37998;53.416;6.730;2023-04-24T12:33:33;7.47;;;1.95;;
51981;SDS011;37998;53.416;6.730;2023-04-24T12:36:00;11.82;;;2.45;;
51981;SDS011;37998;53.416;6.730;2023-04-24T12:38:27;10.05;;;1.90;;
51981;SDS011;37998;53.416;6.730;2023-04-24T12:41:09;10.98;;;2.17;;
51981;SDS011;37998;53.416;6.730;2023-04-24T12:43:38;8.02;;;2.72;;
51981;SDS011;37998;53.416;6.730;2023-04-24T12:46:04;7.30;;;1.60;;
51981;SDS011;37998;53.416;6.730;2023-04-24T12:48:30;6.43;;;1.88;;
51981;SDS011;37998;53.416;6.730;2023-04-24T12:50:57;5.68;;;2.10;;
51981;SDS011;37998;53.416;6.730;2023-04-24T12:53:26;7.10;;;1.75;;
51981;SDS011;37998;53.416;6.730;2023-04-24T12:55:54;11.63;;;2.67;;
51981;SDS011;37998;53.416;6.730;2023-04-24T12:58:21;5.53;;;2.10;;
51981;SDS011;37998;53.416;6.730;2023-04-24T13:00:47;9.35;;;2.30;;
51981;SDS011;37998;53.416;6.730;2023-04-24T13:03:13;8.77;;;1.92;;
51981;SDS011;37998;53.416;6.730;2023-04-24T13:05:39;8.35;;;1.83;;
51981;SDS011;37998;53.416;6.730;2023-04-24T13:08:07;7.43;;;1.73;;
51981;SDS011;37998;53.416;6.730;2023-04-24T13:10:33;6.40;;;1.58;;
51981;SDS011;37998;53.416;6.730;2023-04-24T13:13:00;13.65;;;1.83;;
51981;SDS011;37998;53.416;6.730;2023-04-24T13:15:26;6.07;;;1.45;;
51981;SDS011;37998;53.416;6.730;2023-04-24T13:17:52;4.88;;;1.63;;
51981;SDS011;37998;53.416;6.730;2023-04-24T13:20:18;4.63;;;1.90;;
51981;SDS011;37998;53.416;6.730;2023-04-24T13:22:43;6.75;;;1.92;;
51981;SDS011;37998;53.416;6.730;2023-04-24T13:25:09;5.97;;;1.75;;
51981;SDS011;37998;53.416;6.730;2023-04-24T13:27:37;11.70;;;2.63;;
51981;SDS011;37998;53.416;6.730;2023-04-24T13:30:04;7.30;;;2.00;;
51981;SDS011;37998;53.416;6.730;2023-04-24T13:32:32;10.02;;;1.88;;
51981;SDS011;37998;53.416;6.730;2023-04-24T13:34:58;7.60;;;2.28;;
51981;SDS011;37998;53.416;6.730;2023-04-24T13:37:24;7.55;;;1.70;;
51981;SDS011;37998;53.416;6.730;2023-04-24T13:39:50;8.65;;;1.80;;
51981;SDS011;37998;53.416;6.730;2023-04-24T13:42:16;8.85;;;2.00;;
51981;SDS011;37998;53.416;6.730;2023-04-24T13:44:42;5.43;;;2.00;;
51981;SDS011;37998;53.416;6.730;2023-04-24T13:47:08;6.60;;;1.85;;
51981;SDS011;37998;53.416;6.730;2023-04-24T13:49:34;9.45;;;1.98;;
51981;SDS011;37998;53.416;6.730;2023-04-24T13:52:00;7.85;;;1.98;;
51981;SDS011;37998;53.416;6.730;2023-04-24T13:54:27;9.82;;;2.20;;
51981;SDS011;37998;53.416;6.730;2023-04-24T13:56:53;9.30;;;1.88;;
51981;SDS011;37998;53.416;6.730;2023-04-24T13:59:21;5.13;;;1.50;;
51981;SDS011;37998;53.416;6.730;2023-04-24T14:01:47;7.20;;;1.52;;
51981;SDS011;37998;53.416;6.730;2023-04-24T14:04:13;4.30;;;1.58;;
51981;SDS011;37998;53.416;6.730;2023-04-24T14:06:39;5.03;;;1.67;;
51981;SDS011;37998;53.416;6.730;2023-04-24T14:09:05;5.13;;;1.90;;
51981;SDS011;37998;53.416;6.730;2023-04-24T14:11:31;9.00;;;2.33;;
51981;SDS011;37998;53.416;6.730;2023-04-24T14:13:58;5.75;;;2.00;;
51981;SDS011;37998;53.416;6.730;2023-04-24T14:16:24;7.68;;;2.30;;
51981;SDS011;37998;53.416;6.730;2023-04-24T14:18:50;7.45;;;2.58;;
51981;SDS011;37998;53.416;6.730;2023-04-24T14:21:16;5.30;;;2.35;;
51981;SDS011;37998;53.416;6.730;2023-04-24T14:23:42;6.90;;;1.90;;
51981;SDS011;37998;53.416;6.730;2023-04-24T14:26:09;6.25;;;2.20;;
51981;SDS011;37998;53.416;6.730;2023-04-24T14:28:35;4.30;;;1.70;;
51981;SDS011;37998;53.416;6.730;2023-04-24T14:31:01;7.45;;;2.33;;
51981;SDS011;37998;53.416;6.730;2023-04-24T14:33:27;5.93;;;2.20;;
51981;SDS011;37998;53.416;6.730;2023-04-24T14:35:53;8.57;;;2.60;;
51981;SDS011;37998;53.416;6.730;2023-04-24T14:38:19;7.05;;;2.58;;
51981;SDS011;37998;53.416;6.730;2023-04-24T14:40:45;8.50;;;3.22;;
51981;SDS011;37998;53.416;6.730;2023-04-24T14:43:11;8.90;;;3.17;;
51981;SDS011;37998;53.416;6.730;2023-04-24T14:45:37;7.97;;;3.35;;
51981;SDS011;37998;53.416;6.730;2023-04-24T14:48:03;11.25;;;3.35;;
51981;SDS011;37998;53.416;6.730;2023-04-24T14:50:29;8.38;;;3.42;;
51981;SDS011;37998;53.416;6.730;2023-04-24T14:52:55;12.85;;;3.05;;